Time;durP1;ratioP1;P1;durP2;ratioP2;P2;SDS_P1;SDS_P2;PMS_P1;PMS_P2;Temp;Humidity;BMP_temperature;BMP_pressure;BME280_temperature;BME280_humidity;BME280_pressure;Samples;Min_cycle;Max_cycle;Signal;HPM_P1;HPM_P2
2023/11/08 00:00:53;;;;;;;;;;;;;;;15.00;100.00;99923.56;5111903;28;1955;-58
2023/11/08 00:03:20;;;;;;;;;;;;;;;15.03;100.00;99931.06;5112054;28;841;-59
2023/11/08 00:05:47;;;;;;;;;;;;;;;15.03;100.00;99928.28;5111943;28;827;-59
2023/11/08 00:08:13;;;;;;;;;;;;;;;15.07;100.00;99926.22;5111779;28;896;-59
2023/11/08 00:10:40;;;;;;;;;;;;;;;15.08;100.00;99922.19;5111903;28;865;-58
2023/11/08 00:13:07;;;;;;;;;;;;;;;15.10;100.00;99916.97;5111821;28;857;-58
2023/11/08 00:15:34;;;;;;;;;;;;;;;15.13;100.00;99913.34;5111883;28;841;-58
2023/11/08 00:18:01;;;;;;;;;;;;;;;15.16;100.00;99920.81;5111707;28;844;-59
2023/11/08 00:20:28;;;;;;;;;;;;;;;15.10;100.00;99919.75;5112036;28;1886;-58
2023/11/08 00:22:53;;;;;;;;;;;;;;;15.03;100.00;99909.56;5111532;28;1455;-58
2023/11/08 00:25:20;;;;;;;;;;;;;;;15.00;100.00;99898.50;5111640;28;859;-58
2023/11/08 00:27:47;;;;;;;;;;;;;;;14.92;100.00;99903.47;5111744;28;818;-59
2023/11/08 00:30:14;;;;;;;;;;;;;;;14.74;100.00;99897.47;5115427;28;816;-58
2023/11/08 00:32:41;;;;;;;;;;;;;;;14.57;100.00;99896.59;5115371;28;810;-58
2023/11/08 00:35:08;;;;;;;;;;;;;;;14.47;100.00;99888.03;5115322;28;842;-58
2023/11/08 00:37:34;;;;;;;;;;;;;;;14.45;100.00;99886.91;5115320;28;810;-58
2023/11/08 00:40:01;;;;;;;;;;;;;;;14.44;100.00;99879.75;5115210;28;860;-58
2023/11/08 00:42:28;;;;;;;;;;;;;;;14.35;100.00;99874.75;5115132;28;1968;-59
2023/11/08 00:44:55;;;;;;;;;;;;;;;14.25;100.00;99868.19;5115159;28;869;-59
2023/11/08 00:47:21;;;;;;;;;;;;;;;14.17;100.00;99863.19;5115161;28;802;-58
2023/11/08 00:49:48;;;;;;;;;;;;;;;14.13;100.00;99862.47;5115050;28;846;-59
2023/11/08 00:52:16;;;;;;;;;;;;;;;14.14;100.00;99856.47;5114980;28;849;-58
2023/11/08 00:54:43;;;;;;;;;;;;;;;14.24;100.00;99852.72;5114839;28;870;-59
2023/11/08 00:57:09;;;;;;;;;;;;;;;14.28;100.00;99853.44;5114948;28;874;-59
2023/11/08 00:59:36;;;;;;;;;;;;;;;14.19;100.00;99858.78;5114882;28;1025;-58
2023/11/08 01:02:03;;;;;;;;;;;;;;;14.21;100.00;99848.03;5114644;28;1882;-58
2023/11/08 01:04:30;;;;;;;;;;;;;;;14.20;100.00;99856.78;5114909;28;826;-59
2023/11/08 01:06:57;;;;;;;;;;;;;;;14.14;100.00;99858.47;5114797;28;841;-58
2023/11/08 01:09:23;;;;;;;;;;;;;;;14.09;100.00;99857.75;5096283;28;2337;-58
2023/11/08 01:11:50;;;;;;;;;;;;;;;14.04;100.00;99851.94;5114866;28;783;-58
2023/11/08 01:14:18;;;;;;;;;;;;;;;13.98;100.00;99850.84;5114615;28;822;-58
2023/11/08 01:16:45;;;;;;;;;;;;;;;13.95;100.00;99846.13;5114487;28;880;-59
2023/11/08 01:19:12;;;;;;;;;;;;;;;13.94;100.00;99839.00;5114463;28;961;-58
2023/11/08 01:21:40;;;;;;;;;;;;;;;13.88;100.00;99830.38;5114081;28;1952;-59
2023/11/08 01:24:06;;;;;;;;;;;;;;;13.71;100.00;99834.25;5114360;28;830;-58
2023/11/08 01:26:33;;;;;;;;;;;;;;;13.62;100.00;99829.22;5114337;28;889;-59
2023/11/08 01:28:59;;;;;;;;;;;;;;;13.59;100.00;99824.50;5114269;28;869;-59
2023/11/08 01:31:26;;;;;;;;;;;;;;;13.55;100.00;99826.56;5114189;28;881;-58
2023/11/08 01:33:55;;;;;;;;;;;;;;;13.53;100.00;99824.22;5114281;28;813;-59
2023/11/08 01:36:22;;;;;;;;;;;;;;;13.48;100.00;99825.50;5114078;28;798;-58
2023/11/08 01:38:48;;;;;;;;;;;;;;;13.36;100.00;99820.53;5114114;28;849;-58
2023/11/08 01:41:15;;;;;;;;;;;;;;;13.32;100.00;99821.81;5113915;28;1906;-59
2023/11/08 01:43:41;;;;;;;;;;;;;;;13.34;100.00;99805.50;5114014;28;818;-59
2023/11/08 01:46:11;;;;;;;;;;;;;;;13.30;100.00;99802.78;5113943;28;803;-59
2023/11/08 01:48:38;;;;;;;;;;;;;;;13.20;100.00;99798.94;5113859;28;828;-58
2023/11/08 01:51:06;;;;;;;;;;;;;;;13.11;100.00;99809.78;5113966;28;865;-59
2023/11/08 01:53:35;;;;;;;;;;;;;;;13.13;100.00;99804.59;5114055;28;821;-58
2023/11/08 01:56:03;;;;;;;;;;;;;;;13.19;100.00;99808.47;5113717;28;873;-58
2023/11/08 01:58:32;;;;;;;;;;;;;;;13.18;100.00;99806.09;5113702;28;948;-58
2023/11/08 02:01:00;;;;;;;;;;;;;;;13.24;100.00;99801.66;5113585;28;1881;-59
2023/11/08 02:03:28;;;;;;;;;;;;;;;13.26;100.00;99802.81;5113608;28;895;-58
2023/11/08 02:05:55;;;;;;;;;;;;;;;13.22;100.00;99793.75;5113533;28;871;-59
2023/11/08 02:08:21;;;;;;;;;;;;;;;13.23;100.00;99784.22;5113822;28;865;-59
2023/11/08 02:10:48;;;;;;;;;;;;;;;13.25;100.00;99789.38;5113503;28;802;-59
2023/11/08 02:13:14;;;;;;;;;;;;;;;13.20;100.00;99782.28;5113354;28;832;-58
2023/11/08 02:15:42;;;;;;;;;;;;;;;13.07;100.00;99782.06;5113345;28;901;-59
2023/11/08 02:18:11;;;;;;;;;;;;;;;13.03;100.00;99795.22;5113223;28;889;-58
2023/11/08 02:20:38;;;;;;;;;;;;;;;13.04;100.00;99801.56;5113033;28;1885;-58
2023/11/08 02:23:05;;;;;;;;;;;;;;;13.07;100.00;99798.72;5072686;28;810;-59
2023/11/08 02:25:31;;;;;;;;;;;;;;;13.07;100.00;99795.94;5072589;28;889;-59
2023/11/08 02:27:58;;;;;;;;;;;;;;;13.05;100.00;99794.81;5072557;28;793;-58
2023/11/08 02:30:24;;;;;;;;;;;;;;;13.10;100.00;99808.22;5072435;28;875;-58
2023/11/08 02:32:52;;;;;;;;;;;;;;;13.24;100.00;99809.97;5072457;28;821;-59
2023/11/08 02:35:19;;;;;;;;;;;;;;;13.42;100.00;99799.41;5072368;28;837;-59
2023/11/08 02:37:46;;;;;;;;;;;;;;;13.49;100.00;99792.94;5072352;28;873;-59
2023/11/08 02:40:13;;;;;;;;;;;;;;;13.56;100.00;99773.38;5072442;28;829;-59
2023/11/08 02:42:42;;;;;;;;;;;;;;;13.63;100.00;99773.28;5072147;28;1903;-59
2023/11/08 02:45:09;;;;;;;;;;;;;;;13.71;100.00;99760.03;5072304;28;959;-59
2023/11/08 02:47:36;;;;;;;;;;;;;;;13.79;100.00;99761.47;5072503;28;779;-59
2023/11/08 02:50:04;;;;;;;;;;;;;;;13.76;100.00;99753.19;5072178;28;851;-58
2023/11/08 02:52:30;;;;;;;;;;;;;;;13.72;100.00;99755.25;5071646;28;838;-59
2023/11/08 02:54:57;;;;;;;;;;;;;;;13.69;100.00;99748.56;5072106;28;795;-59
2023/11/08 02:57:24;;;;;;;;;;;;;;;13.65;100.00;99745.84;5072023;28;853;-58
2023/11/08 02:59:51;;;;;;;;;;;;;;;13.66;100.00;99757.75;5072092;28;795;-59
2023/11/08 03:02:20;;;;;;;;;;;;;;;13.64;100.00;99760.94;5071907;28;1889;-58
2023/11/08 03:04:46;;;;;;;;;;;;;;;13.67;100.00;99768.41;5072003;28;783;-59
2023/11/08 03:07:13;;;;;;;;;;;;;;;13.68;100.00;99770.00;5071966;28;864;-59
2023/11/08 03:09:40;;;;;;;;;;;;;;;13.73;100.00;99771.50;5071833;28;795;-58
2023/11/08 03:12:08;;;;;;;;;;;;;;;13.83;100.00;99776.06;5071945;28;849;-58
2023/11/08 03:14:36;;;;;;;;;;;;;;;13.89;100.00;99777.16;5071845;28;798;-59
2023/11/08 03:17:02;;;;;;;;;;;;;;;13.97;100.00;99775.00;5071867;28;825;-58
2023/11/08 03:19:31;;;;;;;;;;;;;;;14.05;100.00;99768.09;5071835;28;853;-58
2023/11/08 03:21:59;;;;;;;;;;;;;;;14.07;100.00;99759.34;5081102;28;1889;-58
2023/11/08 03:24:27;;;;;;;;;;;;;;;14.06;100.00;99755.78;5092034;28;1265;-58
2023/11/08 03:26:53;;;;;;;;;;;;;;;14.11;100.00;99742.63;5092388;28;842;-58
2023/11/08 03:29:20;;;;;;;;;;;;;;;14.14;100.00;99755.66;5091975;28;1164;-59
2023/11/08 03:31:47;;;;;;;;;;;;;;;14.14;100.00;99752.88;5092441;28;762;-58
2023/11/08 03:34:13;;;;;;;;;;;;;;;14.16;100.00;99753.22;5091890;28;1172;-58
2023/11/08 03:36:42;;;;;;;;;;;;;;;14.15;100.00;99754.44;5091800;28;825;-58
2023/11/08 03:39:09;;;;;;;;;;;;;;;14.14;100.00;99758.41;5091983;28;1148;-59
2023/11/08 03:41:36;;;;;;;;;;;;;;;14.13;100.00;99751.31;5091991;28;1913;-59
2023/11/08 03:44:03;;;;;;;;;;;;;;;14.17;100.00;99747.25;5092050;28;775;-59
2023/11/08 03:46:30;;;;;;;;;;;;;;;14.23;100.00;99751.09;5091928;28;824;-58
2023/11/08 03:48:58;;;;;;;;;;;;;;;14.29;100.00;99757.72;5092202;28;845;-58
2023/11/08 03:51:26;;;;;;;;;;;;;;;14.36;100.00;99754.00;5091827;28;830;-59
2023/11/08 03:53:52;;;;;;;;;;;;;;;14.36;100.00;99762.34;5091743;28;830;-58
2023/11/08 03:56:17;;;;;;;;;;;;;;;14.40;100.00;99765.03;5091928;28;778;-58
2023/11/08 03:58:44;;;;;;;;;;;;;;;14.44;100.00;99766.50;5091786;28;1191;-58
2023/11/08 04:01:11;;;;;;;;;;;;;;;14.48;100.00;99772.00;5091841;28;1885;-58
2023/11/08 04:03:41;;;;;;;;;;;;;;;14.48;100.00;99775.56;5093564;28;770;-58
2023/11/08 04:06:08;;;;;;;;;;;;;;;14.46;100.00;99771.66;5095656;28;849;-59
2023/11/08 04:08:34;;;;;;;;;;;;;;;14.38;100.00;99767.44;5095460;28;851;-58
2023/11/08 04:11:01;;;;;;;;;;;;;;;14.20;100.00;99767.84;5095630;28;791;-58
2023/11/08 04:13:28;;;;;;;;;;;;;;;14.03;100.00;99762.19;5095705;28;814;-58
2023/11/08 04:15:56;;;;;;;;;;;;;;;13.86;100.00;99764.09;5095370;28;923;-58
2023/11/08 04:18:22;;;;;;;;;;;;;;;13.81;100.00;99763.84;5095390;28;790;-59
2023/11/08 04:20:48;;;;;;;;;;;;;;;13.80;100.00;99778.91;5096364;28;1977;-60
2023/11/08 04:23:15;;;;;;;;;;;;;;;13.76;100.00;99773.44;5115741;28;826;-58
2023/11/08 04:25:44;;;;;;;;;;;;;;;13.80;100.00;99767.81;5115897;28;838;-58
2023/11/08 04:28:11;;;;;;;;;;;;;;;13.82;100.00;99765.38;5115377;28;819;-58
2023/11/08 04:30:38;;;;;;;;;;;;;;;13.81;100.00;99761.06;5115424;28;873;-59
2023/11/08 04:33:05;;;;;;;;;;;;;;;13.86;100.00;99766.09;5115667;28;885;-59
2023/11/08 04:35:31;;;;;;;;;;;;;;;13.89;100.00;99765.28;5115385;28;931;-58
2023/11/08 04:37:58;;;;;;;;;;;;;;;13.88;100.00;99758.91;5115261;28;822;-59
2023/11/08 04:40:26;;;;;;;;;;;;;;;13.87;100.00;99756.56;5115457;28;885;-59
2023/11/08 04:42:52;;;;;;;;;;;;;;;13.88;100.00;99761.69;5115173;28;1976;-58
2023/11/08 04:45:18;;;;;;;;;;;;;;;13.84;100.00;99751.84;5115333;28;831;-59
2023/11/08 04:47:45;;;;;;;;;;;;;;;13.72;100.00;99756.06;5115287;28;865;-59
2023/11/08 04:50:12;;;;;;;;;;;;;;;13.67;100.00;99751.75;5115145;28;917;-59
2023/11/08 04:52:39;;;;;;;;;;;;;;;13.62;100.00;99748.69;5115281;28;938;-59
2023/11/08 04:55:05;;;;;;;;;;;;;;;13.61;100.00;99739.59;5114983;28;826;-59
2023/11/08 04:57:32;;;;;;;;;;;;;;;13.54;100.00;99742.47;5114978;28;1188;-59
2023/11/08 04:59:59;;;;;;;;;;;;;;;13.45;100.00;99758.91;5096654;28;1174;-59
2023/11/08 05:02:25;;;;;;;;;;;;;;;13.41;100.00;99760.97;5114711;28;1944;-59
2023/11/08 05:04:52;;;;;;;;;;;;;;;13.37;100.00;99757.47;5114732;28;831;-59
2023/11/08 05:07:19;;;;;;;;;;;;;;;13.34;100.00;99741.66;5114880;28;846;-59
2023/11/08 05:09:45;;;;;;;;;;;;;;;13.30;100.00;99730.63;5114897;28;778;-59
2023/11/08 05:12:12;;;;;;;;;;;;;;;13.25;100.00;99736.63;5114546;28;802;-59
2023/11/08 05:14:39;;;;;;;;;;;;;;;13.19;100.00;99749.41;5114239;28;837;-59
2023/11/08 05:17:06;;;;;;;;;;;;;;;13.13;100.00;99754.66;5114512;28;842;-59
2023/11/08 05:19:32;;;;;;;;;;;;;;;13.08;100.00;99763.47;5114307;28;857;-59
2023/11/08 05:21:58;;;;;;;;;;;;;;;13.01;100.00;99769.88;5114038;28;1894;-59
2023/11/08 05:24:25;;;;;;;;;;;;;;;12.95;100.00;99774.38;5114343;28;786;-59
2023/11/08 05:26:51;;;;;;;;;;;;;;;12.93;100.00;99768.44;5114255;28;899;-59
2023/11/08 05:29:21;;;;;;;;;;;;;;;12.91;100.00;99781.13;5114221;28;822;-59
2023/11/08 05:31:50;;;;;;;;;;;;;;;12.96;100.00;99786.25;5114160;28;806;-58
2023/11/08 05:34:16;;;;;;;;;;;;;;;12.99;100.00;99794.50;5114274;28;1183;-59
2023/11/08 05:36:43;;;;;;;;;;;;;;;13.04;100.00;99796.81;5114149;28;854;-58
2023/11/08 05:39:10;;;;;;;;;;;;;;;13.08;100.00;99785.66;5113954;28;778;-59
2023/11/08 05:41:36;;;;;;;;;;;;;;;13.09;100.00;99784.44;5114006;28;1969;-59
2023/11/08 05:44:03;;;;;;;;;;;;;;;13.11;100.00;99789.59;5113879;28;916;-58
2023/11/08 05:46:30;;;;;;;;;;;;;;;13.10;100.00;99779.66;5114008;28;794;-59
2023/11/08 05:48:57;;;;;;;;;;;;;;;13.07;100.00;99784.06;5113665;28;858;-59
2023/11/08 05:51:25;;;;;;;;;;;;;;;13.07;100.00;99782.06;5095549;28;1309;-59
2023/11/08 05:53:52;;;;;;;;;;;;;;;13.15;100.00;99782.00;5113733;28;968;-59
2023/11/08 05:56:18;;;;;;;;;;;;;;;13.21;100.00;99783.84;5113772;28;837;-59
2023/11/08 05:58:44;;;;;;;;;;;;;;;13.26;100.00;99788.16;5113813;28;853;-59
2023/11/08 06:01:19;;;;;;;;;;;;;;;13.33;100.00;99795.59;5113722;28;1935;-59
2023/11/08 06:03:46;;;;;;;;;;;;;;;13.40;100.00;99798.25;5113678;28;842;-59
2023/11/08 06:06:13;;;;;;;;;;;;;;;13.48;100.00;99774.72;5113451;28;822;-58
2023/11/08 06:08:40;;;;;;;;;;;;;;;13.59;100.00;99767.00;5113547;28;826;-59
2023/11/08 06:11:07;;;;;;;;;;;;;;;13.71;100.00;99781.47;5113340;28;837;-58
2023/11/08 06:13:35;;;;;;;;;;;;;;;13.85;100.00;99784.00;5113448;28;826;-59
2023/11/08 06:16:02;;;;;;;;;;;;;;;14.02;100.00;99782.88;5113568;28;857;-59
2023/11/08 06:18:30;;;;;;;;;;;;;;;14.16;100.00;99781.78;5113218;28;814;-59
2023/11/08 06:20:57;;;;;;;;;;;;;;;14.28;100.00;99781.16;5113055;28;1881;-58
2023/11/08 06:23:24;;;;;;;;;;;;;;;14.32;100.00;99785.84;5113217;28;807;-58
2023/11/08 06:25:50;;;;;;;;;;;;;;;14.43;100.00;99803.88;5112368;28;866;-58
2023/11/08 06:28:16;;;;;;;;;;;;;;;14.56;100.00;99794.94;5113087;28;840;-58
2023/11/08 06:30:43;;;;;;;;;;;;;;;14.75;100.00;99785.75;5113139;28;806;-58
2023/11/08 06:33:09;;;;;;;;;;;;;;;14.94;100.00;99772.25;5112977;28;850;-58
2023/11/08 06:35:37;;;;;;;;;;;;;;;14.99;100.00;99769.69;5113052;28;802;-58
2023/11/08 06:38:03;;;;;;;;;;;;;;;14.97;100.00;99766.56;5112923;28;863;-59
2023/11/08 06:40:30;;;;;;;;;;;;;;;14.92;100.00;99769.88;5113086;28;861;-58
2023/11/08 06:42:56;;;;;;;;;;;;;;;14.72;100.00;99775.47;5112738;28;1902;-58
2023/11/08 06:45:23;;;;;;;;;;;;;;;14.61;100.00;99780.50;5113158;28;798;-58
2023/11/08 06:47:50;;;;;;;;;;;;;;;14.46;100.00;99760.53;5112674;28;806;-60
2023/11/08 06:50:25;;;;;;;;;;;;;;;14.42;100.00;99763.41;5112808;28;810;-58
2023/11/08 06:52:52;;;;;;;;;;;;;;;14.53;100.00;99767.94;5112680;28;872;-58
2023/11/08 06:55:18;;;;;;;;;;;;;;;14.66;100.00;99768.88;5094317;28;917;-58
2023/11/08 06:57:46;;;;;;;;;;;;;;;14.79;100.00;99769.78;5112637;28;809;-58
2023/11/08 07:00:14;;;;;;;;;;;;;;;14.98;100.00;99772.91;5112543;28;802;-58
2023/11/08 07:02:41;;;;;;;;;;;;;;;15.14;100.00;99780.50;5112490;28;1881;-58
2023/11/08 07:05:12;;;;;;;;;;;;;;;15.22;100.00;99779.91;5112448;28;818;-58
2023/11/08 07:07:39;;;;;;;;;;;;;;;15.36;100.00;99784.31;5112629;28;839;-58
2023/11/08 07:10:09;;;;;;;;;;;;;;;15.52;100.00;99787.09;5112384;28;867;-58
2023/11/08 07:12:36;;;;;;;;;;;;;;;15.49;100.00;99793.56;5112376;28;810;-58
2023/11/08 07:15:03;;;;;;;;;;;;;;;15.51;100.00;99795.88;5112445;28;818;-58
2023/11/08 07:17:30;;;;;;;;;;;;;;;15.60;100.00;99793.28;5112176;28;814;-58
2023/11/08 07:20:00;;;;;;;;;;;;;;;15.52;100.00;99784.31;5112140;28;1003;-58
2023/11/08 07:22:26;;;;;;;;;;;;;;;15.39;100.00;99783.47;5112292;28;1951;-58
2023/11/08 07:24:53;;;;;;;;;;;;;;;15.31;100.00;99779.28;5112244;28;1212;-58
2023/11/08 07:27:19;;;;;;;;;;;;;;;15.27;100.00;99773.03;5112290;28;1185;-58
2023/11/08 07:29:45;;;;;;;;;;;;;;;15.39;100.00;99772.31;5093852;28;1370;-58
2023/11/08 07:32:13;;;;;;;;;;;;;;;15.47;100.00;99768.16;5112233;28;779;-58
2023/11/08 07:34:43;;;;;;;;;;;;;;;15.73;100.00;99764.75;5112133;28;915;-58
2023/11/08 07:37:13;;;;;;;;;;;;;;;15.84;100.00;99763.22;5112918;28;839;-58
2023/11/08 07:39:40;;;;;;;;;;;;;;;15.97;100.00;99763.28;5116453;28;826;-58
2023/11/08 07:42:07;;;;;;;;;;;;;;;15.89;100.00;99757.09;5116254;28;1968;-59
2023/11/08 07:44:34;;;;;;;;;;;;;;;15.85;100.00;99761.22;5116357;28;814;-58
2023/11/08 07:47:00;;;;;;;;;;;;;;;15.69;100.00;99760.00;5116100;28;875;-58
2023/11/08 07:49:28;;;;;;;;;;;;;;;15.47;100.00;99761.81;5116265;28;826;-59
2023/11/08 07:51:54;;;;;;;;;;;;;;;15.27;100.00;99781.38;5116410;28;849;-58
2023/11/08 07:54:20;;;;;;;;;;;;;;;15.19;100.00;99777.19;5116189;28;806;-58
2023/11/08 07:56:52;;;;;;;;;;;;;;;15.14;100.00;99775.72;5116062;28;865;-58
2023/11/08 07:59:19;;;;;;;;;;;;;;;15.18;100.00;99768.06;5116035;28;837;-58
2023/11/08 08:01:47;;;;;;;;;;;;;;;15.22;100.00;99770.78;5115891;28;1881;-58
2023/11/08 08:04:18;;;;;;;;;;;;;;;15.21;100.00;99771.97;5116131;28;814;-58
2023/11/08 08:06:46;;;;;;;;;;;;;;;15.24;100.00;99776.69;5115896;28;822;-58
2023/11/08 08:09:17;;;;;;;;;;;;;;;15.25;100.00;99765.09;5115831;28;833;-58
2023/11/08 08:11:47;;;;;;;;;;;;;;;15.55;100.00;99757.59;5115877;28;820;-58
2023/11/08 08:14:15;;;;;;;;;;;;;;;15.69;100.00;99760.00;5116124;28;818;-58
2023/11/08 08:16:42;;;;;;;;;;;;;;;15.97;100.00;99759.72;5097662;28;1358;-58
2023/11/08 08:19:08;;;;;;;;;;;;;;;16.20;100.00;99761.47;5115758;28;1220;-58
2023/11/08 08:21:35;;;;;;;;;;;;;;;16.40;100.00;99764.84;5115539;28;1881;-58
2023/11/08 08:24:02;;;;;;;;;;;;;;;16.45;100.00;99758.72;5115562;28;1181;-58
2023/11/08 08:26:29;;;;;;;;;;;;;;;16.33;100.00;99760.25;5097363;28;806;-58
2023/11/08 08:28:56;;;;;;;;;;;;;;;16.28;100.00;99754.44;5115431;28;1169;-58
2023/11/08 08:31:23;;;;;;;;;;;;;;;16.37;100.00;99749.00;5115487;28;830;-58
2023/11/08 08:33:50;;;;;;;;;;;;;;;16.37;100.00;99751.78;5115663;28;775;-58
2023/11/08 08:36:17;;;;;;;;;;;;;;;16.51;100.00;99737.44;5115289;28;1214;-58
2023/11/08 08:38:44;;;;;;;;;;;;;;;16.65;100.00;99755.72;5115330;28;1231;-58
2023/11/08 08:41:10;;;;;;;;;;;;;;;16.70;100.00;99732.06;5115252;28;1964;-58
2023/11/08 08:43:37;;;;;;;;;;;;;;;16.98;100.00;99735.22;5115208;28;866;-58
2023/11/08 08:46:05;;;;;;;;;;;;;;;17.07;100.00;99729.72;5114930;28;826;-58
2023/11/08 08:48:31;;;;;;;;;;;;;;;16.52;100.00;99732.63;5115161;28;869;-58
2023/11/08 08:50:59;;;;;;;;;;;;;;;16.23;100.00;99721.53;5114614;28;782;-58
2023/11/08 08:53:28;;;;;;;;;;;;;;;16.16;100.00;99705.00;5096604;28;1292;-58
2023/11/08 08:55:53;;;;;;;;;;;;;;;16.00;100.00;99709.44;5115233;28;865;-58
2023/11/08 08:58:21;;;;;;;;;;;;;;;16.11;100.00;99703.56;5114981;28;1188;-58
2023/11/08 09:00:46;;;;;;;;;;;;;;;16.34;100.00;99719.19;5115107;28;1943;-58
2023/11/08 09:03:14;;;;;;;;;;;;;;;16.57;100.00;99720.13;5114778;28;874;-57
2023/11/08 09:05:41;;;;;;;;;;;;;;;16.86;100.00;99720.81;5114804;28;1309;-57
2023/11/08 09:08:07;;;;;;;;;;;;;;;16.91;100.00;99723.03;5115128;28;889;-57
2023/11/08 09:10:36;;;;;;;;;;;;;;;17.17;100.00;99728.59;5096334;28;2272;-57
2023/11/08 09:13:03;;;;;;;;;;;;;;;17.23;100.00;99734.41;5114670;28;818;-58
2023/11/08 09:15:35;;;;;;;;;;;;;;;16.85;100.00;99738.00;5096320;28;1267;-58
2023/11/08 09:18:02;;;;;;;;;;;;;;;16.74;100.00;99727.91;5114439;28;832;-57
2023/11/08 09:20:29;;;;;;;;;;;;;;;16.87;100.00;99724.38;5114333;28;893;-58
2023/11/08 09:22:56;;;;;;;;;;;;;;;16.97;100.00;99720.47;5114141;28;1882;-58
2023/11/08 09:25:23;;;;;;;;;;;;;;;16.99;100.00;99709.63;5114327;28;864;-58
2023/11/08 09:27:49;;;;;;;;;;;;;;;17.10;100.00;99704.47;5114380;28;838;-58
2023/11/08 09:30:16;;;;;;;;;;;;;;;17.62;100.00;99696.72;5114336;28;822;-58
2023/11/08 09:32:53;;;;;;;;;;;;;;;17.86;100.00;99701.88;5114207;28;833;-58
2023/11/08 09:35:22;;;;;;;;;;;;;;;17.71;100.00;99696.03;5095767;28;1259;-58
2023/11/08 09:37:48;;;;;;;;;;;;;;;17.53;100.00;99696.66;5114151;28;845;-58
2023/11/08 09:40:16;;;;;;;;;;;;;;;17.25;100.00;99701.22;5113974;28;923;-58
2023/11/08 09:42:44;;;;;;;;;;;;;;;16.89;100.00;99697.56;5114056;28;1914;-58
2023/11/08 09:45:11;;;;;;;;;;;;;;;16.77;100.00;99690.00;5113839;28;842;-58
2023/11/08 09:47:39;;;;;;;;;;;;;;;16.65;100.00;99690.78;5113940;28;888;-58
2023/11/08 09:50:14;;;;;;;;;;;;;;;16.61;100.00;99681.72;5114086;28;874;-58
2023/11/08 09:52:46;;;;;;;;;;;;;;;16.62;100.00;99674.91;5113832;28;873;-58
2023/11/08 09:55:13;;;;;;;;;;;;;;;16.59;100.00;99659.06;5095457;28;1306;-58
2023/11/08 09:57:42;;;;;;;;;;;;;;;16.85;100.00;99648.69;5114038;28;806;-58
2023/11/08 10:00:10;;;;;;;;;;;;;;;16.81;100.00;99645.22;5095351;28;1322;-58
2023/11/08 10:02:36;;;;;;;;;;;;;;;16.81;100.00;99651.59;5112762;28;1881;-58
2023/11/08 10:05:06;;;;;;;;;;;;;;;17.04;100.00;99652.44;5113808;28;814;-58
2023/11/08 10:07:32;;;;;;;;;;;;;;;17.41;100.00;99653.56;5113408;28;850;-58
2023/11/08 10:09:59;;;;;;;;;;;;;;;17.58;100.00;99653.38;5113502;28;817;-58
2023/11/08 10:12:26;;;;;;;;;;;;;;;17.44;100.00;99647.06;5113371;28;893;-58
2023/11/08 10:15:01;;;;;;;;;;;;;;;17.35;100.00;99647.78;5113302;28;908;-58
2023/11/08 10:17:37;;;;;;;;;;;;;;;17.33;100.00;99636.28;5113708;28;806;-58
2023/11/08 10:20:08;;;;;;;;;;;;;;;17.01;100.00;99648.53;5113186;28;1014;-58
2023/11/08 10:22:36;;;;;;;;;;;;;;;16.76;100.00;99645.78;5112934;28;1885;-58
2023/11/08 10:25:05;;;;;;;;;;;;;;;16.66;100.00;99644.88;5113212;28;818;-58
2023/11/08 10:27:33;;;;;;;;;;;;;;;16.76;100.00;99635.38;5113096;28;855;-58
2023/11/08 10:30:12;;;;;;;;;;;;;;;17.03;100.00;99636.94;5113121;28;1008;-58
2023/11/08 10:32:39;;;;;;;;;;;;;;;16.94;100.00;99634.81;5113183;28;877;-58
2023/11/08 11:06:11;;;;;;;;;;;;;;;19.69;100.00;99630.13;5631047;22;1841;-66
2023/11/08 11:08:42;;;;;;;;;;;;;;;19.88;100.00;99617.63;5012321;28;874;-65
2023/11/08 11:11:09;;;;;;;;;;;;;;;19.96;100.00;99623.72;5012314;28;830;-66
2023/11/08 11:13:45;;;;;;;;;;;;;;;20.15;100.00;99618.81;5011851;28;885;-66
2023/11/08 11:16:19;;;;;;;;;;;;;;;20.33;100.00;99609.53;5012843;28;855;-66
2023/11/08 11:18:47;;;;;;;;;;;;;;;20.52;100.00;99601.81;5012123;28;819;-66
2023/11/08 11:21:17;;;;;;;;;;;;;;;20.50;100.00;99602.28;5012062;28;1954;-67
2023/11/08 11:23:51;;;;;;;;;;;;;;;20.40;100.00;99607.19;4995478;28;1156;-65
2023/11/08 11:26:50;;;;;;;;;;;;;;;20.34;100.00;99597.84;5012074;28;897;-66
2023/11/08 11:29:17;;;;;;;;;;;;;;;20.13;100.00;99599.66;4968995;28;1054;-66
2023/11/08 11:31:44;;;;;;;;;;;;;;;20.01;100.00;99594.25;5012000;28;814;-66
2023/11/08 11:34:26;;;;;;;;;;;;;;;19.69;100.00;99597.25;5012047;28;830;-67
2023/11/08 11:37:03;;;;;;;;;;;;;;;19.39;100.00;99587.78;5011780;28;850;-66
2023/11/08 11:39:32;;;;;;;;;;;;;;;19.30;100.00;99591.38;5012019;28;822;-66
2023/11/08 11:42:04;;;;;;;;;;;;;;;19.38;100.00;99591.84;5011817;28;1910;-66
2023/11/08 11:44:52;;;;;;;;;;;;;;;19.40;100.00;99592.16;5012271;28;767;-66
2023/11/08 11:47:22;;;;;;;;;;;;;;;19.48;100.00;99584.19;5011915;28;1245;-66
2023/11/08 11:49:49;;;;;;;;;;;;;;;19.60;100.00;99580.44;5011951;28;913;-66
2023/11/08 11:52:15;;;;;;;;;;;;;;;19.74;100.00;99584.66;5011922;28;843;-65
2023/11/08 11:54:49;;;;;;;;;;;;;;;19.83;100.00;99589.47;5011940;28;898;-65
2023/11/08 11:57:16;;;;;;;;;;;;;;;19.81;100.00;99580.75;5012018;28;831;-65
2023/11/08 11:59:44;;;;;;;;;;;;;;;19.74;100.00;99582.63;5011710;28;858;-65
2023/11/08 12:02:11;;;;;;;;;;;;;;;19.68;100.00;99583.72;5011731;28;1886;-65
2023/11/08 12:04:39;;;;;;;;;;;;;;;19.76;100.00;99582.94;5011624;28;866;-65
2023/11/08 12:07:10;;;;;;;;;;;;;;;19.84;100.00;99568.59;4990506;28;1470;-66
2023/11/08 12:09:39;;;;;;;;;;;;;;;19.72;100.00;99564.72;4992194;28;910;-65
2023/11/08 12:12:06;;;;;;;;;;;;;;;19.67;100.00;99559.72;5007186;28;1315;-65
2023/11/08 12:14:34;;;;;;;;;;;;;;;19.65;100.00;99546.19;4992138;28;827;-65
2023/11/08 12:17:03;;;;;;;;;;;;;;;19.56;100.00;99544.16;4991973;28;937;-65
2023/11/08 12:19:34;;;;;;;;;;;;;;;19.59;100.00;99545.28;4992057;28;842;-65
2023/11/08 12:22:01;;;;;;;;;;;;;;;19.61;100.00;99539.97;4990718;28;1967;-65
2023/11/08 12:24:31;;;;;;;;;;;;;;;19.52;100.00;99542.78;4993058;28;819;-65
2023/11/08 12:26:58;;;;;;;;;;;;;;;19.42;100.00;99550.44;4995619;28;795;-65
2023/11/08 12:29:24;;;;;;;;;;;;;;;19.36;100.00;99547.47;4994157;28;1292;-65
2023/11/08 12:31:50;;;;;;;;;;;;;;;19.32;100.00;99555.28;4995614;28;889;-65
2023/11/08 12:34:18;;;;;;;;;;;;;;;19.30;100.00;99554.97;4995394;28;814;-66
2023/11/08 12:36:45;;;;;;;;;;;;;;;19.23;100.00;99557.31;4995426;28;819;-65
2023/11/08 12:39:21;;;;;;;;;;;;;;;19.21;100.00;99548.59;4995433;28;866;-65
2023/11/08 12:41:47;;;;;;;;;;;;;;;19.28;100.00;99551.06;4995334;28;1887;-65
2023/11/08 12:44:16;;;;;;;;;;;;;;;19.43;100.00;99556.81;4993921;28;1351;-64
2023/11/08 12:46:49;;;;;;;;;;;;;;;19.55;100.00;99561.47;4995263;28;973;-65
2023/11/08 12:49:17;;;;;;;;;;;;;;;19.59;100.00;99559.28;4995365;28;1229;-65
2023/11/08 12:51:44;;;;;;;;;;;;;;;19.54;100.00;99571.13;4995330;28;926;-67
2023/11/08 12:54:13;;;;;;;;;;;;;;;19.51;100.00;99572.84;4995388;28;818;-65
2023/11/08 12:56:40;;;;;;;;;;;;;;;19.54;100.00;99566.31;4995046;28;854;-65
2023/11/08 12:59:16;;;;;;;;;;;;;;;19.47;100.00;99561.00;4995069;28;885;-64
2023/11/08 13:01:50;;;;;;;;;;;;;;;19.47;100.00;99560.25;4994888;28;1943;-65
2023/11/08 13:04:18;;;;;;;;;;;;;;;19.44;100.00;99561.16;4994963;28;854;-65
2023/11/08 13:06:48;;;;;;;;;;;;;;;19.46;100.00;99572.69;5002227;28;1225;-64
2023/11/08 13:09:15;;;;;;;;;;;;;;;19.46;100.00;99578.28;5014637;28;815;-65
2023/11/08 13:11:41;;;;;;;;;;;;;;;19.50;100.00;99581.72;5014563;28;842;-65
2023/11/08 13:14:08;;;;;;;;;;;;;;;19.51;100.00;99586.09;5014533;28;890;-64
2023/11/08 13:16:35;;;;;;;;;;;;;;;19.63;100.00;99592.75;5014569;28;1301;-65
2023/11/08 13:19:03;;;;;;;;;;;;;;;19.69;100.00;99588.84;5014616;28;806;-64
2023/11/08 13:21:30;;;;;;;;;;;;;;;19.61;100.00;99600.84;5014260;28;1914;-64
2023/11/08 13:23:57;;;;;;;;;;;;;;;19.49;100.00;99594.19;4996606;28;1379;-64
2023/11/08 13:26:23;;;;;;;;;;;;;;;19.50;100.00;99601.31;5014304;28;926;-65
2023/11/08 13:28:50;;;;;;;;;;;;;;;19.40;100.00;99594.19;5014215;28;807;-64